Terminal Aerodrome Forecast
Issued by NWS Grand Forks, ND

Home | Current Version | Previous Version | Text Only | Print | Product List | Glossary On
Versions: 1 2 3 4 5 6 7 8 9 10 11 12 13 14 15 16
674
FTUS43 KFGF 172321
TAFGFK
TAF
KGFK 172321Z 1800/1824 34007KT P6SM SCT150 BKN250
     FM180900 31006KT P6SM BKN025
     FM181600 32012KT P6SM BKN060
     FM181800 32016G24KT P6SM SCT060
     FM182300 30011KT P6SM FEW250=

USA.gov is the U.S. government's official web portal to all federal, state and local government web resources and services.